createdAt,value
2023-02-13T00:00:39.952Z,102835.53
2023-02-13T00:01:42.413Z,102849.75
2023-02-13T00:02:44.948Z,102847.06
2023-02-13T00:03:47.373Z,102841.75
2023-02-13T00:04:49.553Z,102845.31
2023-02-13T00:05:51.752Z,102842.66
2023-02-13T00:06:54.158Z,102839.06
2023-02-13T00:07:57.345Z,102843.56
2023-02-13T00:08:59.811Z,102848.91
2023-02-13T00:10:02.092Z,102841.78
2023-02-13T00:11:04.415Z,102843.53
2023-02-13T00:12:08.185Z,102847.06
2023-02-13T00:13:10.358Z,102833.69
2023-02-13T00:14:12.519Z,102847.09
2023-02-13T00:15:14.925Z,102847.09
2023-02-13T00:16:17.206Z,102839.06
2023-02-13T00:17:19.559Z,102837.31
2023-02-13T00:18:21.923Z,102836.44
2023-02-13T00:19:24.126Z,102835.53
2023-02-13T00:20:26.345Z,102833.78
2023-02-13T00:21:28.590Z,102836.41
2023-02-13T00:22:30.879Z,102836.38
2023-02-13T00:23:35.037Z,102837.31
2023-02-13T00:24:37.262Z,102831.06
2023-02-13T00:25:39.678Z,102831.03
2023-02-13T00:26:42.174Z,102832.75
2023-02-13T00:27:44.360Z,102836.34
2023-02-13T00:28:46.594Z,102832.75
2023-02-13T00:29:48.863Z,102840.78
2023-02-13T00:30:51.583Z,102831.91
2023-02-13T00:31:55.263Z,102832.03
2023-02-13T00:32:58.040Z,102832.97
2023-02-13T00:34:00.277Z,102839.28
2023-02-13T00:35:03.231Z,102834.84
2023-02-13T00:36:08.614Z,102840.19
2023-02-13T00:37:11.278Z,102833.97
2023-02-13T00:38:13.501Z,102833.97
2023-02-13T00:39:15.895Z,102832.13
2023-02-13T00:40:18.279Z,102826.72
2023-02-13T00:41:21.272Z,102838.28
2023-02-13T00:42:26.515Z,102833.78
2023-02-13T00:43:28.833Z,102836.41
2023-02-13T00:44:32.429Z,102835.50
2023-02-13T00:45:36.601Z,102831.97
2023-02-13T00:46:38.931Z,102831.16
2023-02-13T00:47:41.390Z,102836.50
2023-02-13T00:48:43.896Z,102827.56
2023-02-13T00:49:46.587Z,102835.59
2023-02-13T00:50:56.595Z,102831.06
2023-02-13T00:52:04.939Z,102828.41
2023-02-13T00:53:07.445Z,102824.84
2023-02-13T00:54:09.636Z,102826.63
2023-02-13T00:55:12.583Z,102827.47
2023-02-13T00:56:14.743Z,102822.97
2023-02-13T00:57:19.988Z,102826.63
2023-02-13T00:58:23.398Z,102824.91
2023-02-13T00:59:26.578Z,102822.22
2023-02-13T01:00:28.948Z,102824.88
2023-02-13T01:01:31.380Z,102824.00
2023-02-13T01:02:36.216Z,102828.47
2023-02-13T01:03:38.690Z,102821.34
2023-02-13T01:04:41.296Z,102821.34
2023-02-13T01:05:44.478Z,102827.59
2023-02-13T01:06:46.711Z,102819.56
2023-02-13T01:07:50.564Z,102821.25
2023-02-13T01:08:52.952Z,102819.50
2023-02-13T01:09:55.146Z,102823.13
2023-02-13T01:10:57.979Z,102818.69
2023-02-13T01:12:00.420Z,102822.31
2023-02-13T01:13:02.750Z,102827.69
2023-02-13T01:14:05.063Z,102820.63
2023-02-13T01:15:07.632Z,102817.97
2023-02-13T01:16:09.893Z,102824.09
2023-02-13T01:17:12.319Z,102826.69
2023-02-13T01:18:16.664Z,102823.97
2023-02-13T01:19:18.869Z,102824.84
2023-02-13T01:20:21.494Z,102818.47
2023-02-13T01:21:24.471Z,102815.84
2023-02-13T01:22:28.747Z,102816.84
2023-02-13T01:23:37.315Z,102811.53
2023-02-13T01:24:39.568Z,102812.34
2023-02-13T01:25:42.695Z,102817.63
2023-02-13T01:26:44.998Z,102809.63
2023-02-13T01:27:48.298Z,102812.41
2023-02-13T01:28:54.724Z,102809.72
2023-02-13T01:29:56.973Z,102813.25
2023-02-13T01:31:01.666Z,102806.13
2023-02-13T01:32:05.195Z,102802.50
2023-02-13T01:33:07.690Z,102801.63
2023-02-13T01:34:09.975Z,102796.34
2023-02-13T01:35:14.126Z,102793.72
2023-02-13T01:36:16.528Z,102799.03
2023-02-13T01:37:19.330Z,102798.06
2023-02-13T01:38:21.846Z,102798.06
2023-02-13T01:39:24.390Z,102796.25
2023-02-13T01:40:30.278Z,102797.13
2023-02-13T01:41:32.599Z,102794.47
2023-02-13T01:42:35.800Z,102797.13
2023-02-13T01:43:44.088Z,102792.66
2023-02-13T01:44:47.818Z,102799.78
2023-02-13T01:45:57.761Z,102799.78
2023-02-13T01:47:00.152Z,102804.41
2023-02-13T01:48:16.713Z,102799.00
2023-02-13T01:49:23.648Z,102796.34
2023-02-13T01:50:41.259Z,102792.78
2023-02-13T01:51:44.899Z,102795.41
2023-02-13T01:53:02.789Z,102798.06
2023-02-13T01:54:10.853Z,102801.53
2023-02-13T01:55:14.881Z,102803.38
2023-02-13T01:56:42.880Z,102803.56
2023-02-13T01:57:52.668Z,102803.63
2023-02-13T01:58:59.354Z,102796.56
2023-02-13T02:00:13.782Z,102802.78
2023-02-13T02:01:23.429Z,102810.75
2023-02-13T02:02:26.512Z,102806.25
2023-02-13T02:03:47.822Z,102799.13
2023-02-13T02:04:51.339Z,102804.44
2023-02-13T02:05:57.172Z,102805.44
2023-02-13T02:07:10.864Z,102804.53
2023-02-13T02:08:14.649Z,102802.72
2023-02-13T02:09:21.266Z,102795.63
2023-02-13T02:10:24.010Z,102805.41
2023-02-13T02:11:34.838Z,102801.91
2023-02-13T02:12:45.880Z,102789.44
2023-02-13T02:13:48.505Z,102795.66
2023-02-13T02:14:54.385Z,102796.56
2023-02-13T02:15:58.127Z,102808.09
2023-02-13T02:17:00.575Z,102800.06
2023-02-13T02:18:02.920Z,102803.66
2023-02-13T02:19:14.814Z,102789.44
2023-02-13T02:20:59.308Z,102794.78
2023-02-13T02:22:19.401Z,102793.00
2023-02-13T02:24:17.237Z,102794.78
2023-02-13T02:25:40.592Z,102802.72
2023-02-13T02:27:08.828Z,102797.38
2023-02-13T02:29:05.059Z,102798.31
2023-02-13T02:30:35.059Z,102784.97
2023-02-13T02:31:47.431Z,102790.25
2023-02-13T02:32:56.802Z,102796.41
2023-02-13T02:34:20.779Z,102798.16
2023-02-13T02:35:50.049Z,102800.03
2023-02-13T02:37:35.523Z,102792.78
2023-02-13T02:39:05.875Z,102790.94
2023-02-13T02:40:29.399Z,102787.50
2023-02-13T02:41:54.732Z,102787.59
2023-02-13T02:43:09.376Z,102781.38
2023-02-13T02:44:42.971Z,102782.25
2023-02-13T02:46:17.208Z,102791.13
2023-02-13T02:47:58.100Z,102779.53
2023-02-13T02:49:34.488Z,102785.72
2023-02-13T02:50:58.959Z,102789.19
2023-02-13T02:52:15.741Z,102790.16
2023-02-13T02:53:23.825Z,102787.50
2023-02-13T02:54:49.299Z,102785.78
2023-02-13T02:56:06.102Z,102788.44
2023-02-13T02:57:15.720Z,102788.44
2023-02-13T02:59:11.485Z,102782.25
2023-02-13T03:00:36.222Z,102782.16
2023-02-13T03:01:57.486Z,102784.81
2023-02-13T03:03:18.743Z,102784.84
2023-02-13T03:04:52.485Z,102788.38
2023-02-13T03:06:11.313Z,102784.88
2023-02-13T03:07:16.925Z,102782.19
2023-02-13T03:08:39.601Z,102783.09
2023-02-13T03:10:05.593Z,102790.16
2023-02-13T03:11:28.176Z,102789.25
2023-02-13T03:12:56.630Z,102789.16
2023-02-13T03:14:03.170Z,102788.19
2023-02-13T03:15:05.683Z,102793.47
2023-02-13T03:16:32.774Z,102791.81
2023-02-13T03:17:54.559Z,102797.03
2023-02-13T03:19:17.078Z,102791.63
2023-02-13T03:20:57.724Z,102791.63
2023-02-13T03:22:19.963Z,102789.81
2023-02-13T03:24:06.194Z,102790.66
2023-02-13T03:25:19.017Z,102788.84
2023-02-13T03:27:14.608Z,102793.22
2023-02-13T03:28:50.245Z,102795.03
2023-02-13T03:30:13.836Z,102792.31
2023-02-13T03:31:27.907Z,102791.44
2023-02-13T03:32:55.335Z,102788.78
2023-02-13T03:34:12.228Z,102789.69
2023-02-13T03:35:43.856Z,102792.34
2023-02-13T03:37:28.184Z,102796.75
2023-02-13T03:38:44.973Z,102793.28
2023-02-13T03:40:31.841Z,102781.63
2023-02-13T03:41:45.822Z,102786.03
2023-02-13T03:43:04.991Z,102787.84
2023-02-13T03:44:16.349Z,102790.47
2023-02-13T03:45:47.719Z,102792.25
2023-02-13T03:46:52.985Z,102801.13
2023-02-13T03:47:58.394Z,102799.41
2023-02-13T03:49:23.473Z,102802.09
2023-02-13T03:50:27.784Z,102803.00
2023-02-13T03:51:29.967Z,102807.44
2023-02-13T03:52:47.470Z,102810.03
2023-02-13T03:53:55.865Z,102803.72
2023-02-13T03:55:25.941Z,102804.59
2023-02-13T03:56:50.930Z,102807.31
2023-02-13T03:58:15.678Z,102807.19
2023-02-13T03:59:32.751Z,102802.72
2023-02-13T04:00:43.062Z,102809.81
2023-02-13T04:01:52.448Z,102803.66
2023-02-13T04:03:05.821Z,102805.41
2023-02-13T04:04:18.258Z,102805.31
2023-02-13T04:05:27.911Z,102807.03
2023-02-13T04:06:34.159Z,102805.28
2023-02-13T04:07:36.579Z,102807.03
2023-02-13T04:08:39.046Z,102804.25
2023-02-13T04:09:43.380Z,102811.31
2023-02-13T04:10:58.893Z,102806.06
2023-02-13T04:12:10.451Z,102806.03
2023-02-13T04:13:33.729Z,102807.81
2023-02-13T04:14:45.860Z,102800.66
2023-02-13T04:15:57.566Z,102812.25
2023-02-13T04:17:06.045Z,102805.19
2023-02-13T04:18:16.409Z,102808.78
2023-02-13T04:19:19.965Z,102815.03
2023-02-13T04:20:22.398Z,102807.09
2023-02-13T04:21:24.691Z,102804.44
2023-02-13T04:22:27.086Z,102800.88
2023-02-13T04:23:29.470Z,102809.75
2023-02-13T04:24:32.209Z,102802.53
2023-02-13T04:25:36.171Z,102804.34
2023-02-13T04:26:41.589Z,102801.69
2023-02-13T04:27:44.075Z,102805.28
2023-02-13T04:28:46.532Z,102809.56
2023-02-13T04:29:48.805Z,102806.97
2023-02-13T04:30:51.156Z,102804.31
2023-02-13T04:31:53.556Z,102810.53
2023-02-13T04:32:56.102Z,102803.38
2023-02-13T04:33:58.289Z,102807.00
2023-02-13T04:35:00.682Z,102808.78
2023-02-13T04:36:03.054Z,102801.72
2023-02-13T04:37:05.352Z,102806.19
2023-02-13T04:38:07.636Z,102807.94
2023-02-13T04:39:11.355Z,102806.31
2023-02-13T04:40:13.683Z,102808.97
2023-02-13T04:41:16.457Z,102811.69
2023-02-13T04:42:18.691Z,102803.69
2023-02-13T04:43:21.204Z,102810.78
2023-02-13T04:44:23.381Z,102806.31
2023-02-13T04:45:25.703Z,102807.97
2023-02-13T04:46:28.240Z,102811.47
2023-02-13T04:47:30.571Z,102809.72
2023-02-13T04:48:32.875Z,102807.94
2023-02-13T04:49:35.302Z,102799.91
2023-02-13T04:50:37.709Z,102812.41
2023-02-13T04:51:40.320Z,102802.66
2023-02-13T04:52:42.543Z,102811.59
2023-02-13T04:53:44.750Z,102813.41
2023-02-13T04:54:47.102Z,102805.41
2023-02-13T04:55:49.286Z,102809.94
2023-02-13T04:56:51.863Z,102812.59
2023-02-13T04:57:55.453Z,102810.84
2023-02-13T04:58:57.656Z,102806.41
2023-02-13T04:59:59.898Z,102806.38
2023-02-13T05:01:02.123Z,102809.06
2023-02-13T05:02:04.471Z,102804.66
2023-02-13T05:03:08.674Z,102809.06
2023-02-13T05:04:16.142Z,102807.28
2023-02-13T05:05:19.133Z,102815.25
2023-02-13T05:06:21.361Z,102811.66
2023-02-13T05:07:23.797Z,102808.13
2023-02-13T05:08:26.026Z,102805.50
2023-02-13T05:09:28.457Z,102811.66
2023-02-13T05:10:31.409Z,102806.38
2023-02-13T05:11:33.927Z,102807.31
2023-02-13T05:12:36.356Z,102797.59
2023-02-13T05:13:38.963Z,102805.56
2023-02-13T05:14:41.192Z,102802.13
2023-02-13T05:15:43.418Z,102804.03
2023-02-13T05:16:46.074Z,102806.75
2023-02-13T05:17:48.290Z,102802.34
2023-02-13T05:18:54.811Z,102806.78
2023-02-13T05:19:57.274Z,102806.75
2023-02-13T05:21:18.018Z,102801.41
2023-02-13T05:22:39.496Z,102800.38
2023-02-13T05:23:41.940Z,102802.09
2023-02-13T05:24:44.415Z,102797.63
2023-02-13T05:25:46.631Z,102804.69
2023-02-13T05:26:48.894Z,102810.03
2023-02-13T05:27:51.312Z,102802.81
2023-02-13T05:29:12.033Z,102804.72
2023-02-13T05:30:14.944Z,102807.41
2023-02-13T05:31:17.267Z,102813.59
2023-02-13T05:32:19.782Z,102807.47
2023-02-13T05:33:22.140Z,102810.97
2023-02-13T05:34:26.976Z,102807.44
2023-02-13T05:35:29.386Z,102812.78
2023-02-13T05:36:31.562Z,102816.31
2023-02-13T05:37:33.817Z,102812.75
2023-02-13T05:38:38.214Z,102812.72
2023-02-13T05:39:40.567Z,102816.28
2023-02-13T05:40:42.771Z,102815.44
2023-02-13T05:41:45.978Z,102812.78
2023-02-13T05:42:48.167Z,102817.19
2023-02-13T05:43:50.461Z,102821.66
2023-02-13T05:44:52.829Z,102819.78
2023-02-13T05:46:05.816Z,102821.56
2023-02-13T05:47:08.269Z,102821.50
2023-02-13T05:48:10.684Z,102826.81
2023-02-13T05:49:15.194Z,102823.28
2023-02-13T05:50:17.753Z,102827.72
2023-02-13T05:51:20.743Z,102826.81
2023-02-13T05:52:23.225Z,102829.53
2023-02-13T05:53:25.488Z,102828.69
2023-02-13T05:54:27.692Z,102831.28
2023-02-13T05:55:29.947Z,102833.91
2023-02-13T05:56:32.159Z,102831.28
2023-02-13T05:57:34.882Z,102836.63
2023-02-13T05:58:37.783Z,102833.97
2023-02-13T05:59:40.184Z,102832.19
2023-02-13T06:00:42.616Z,102834.81
2023-02-13T06:01:44.923Z,102836.59
2023-02-13T06:02:47.356Z,102834.72
2023-02-13T06:03:50.247Z,102841.78
2023-02-13T06:04:52.539Z,102837.38
2023-02-13T06:05:55.724Z,102840.06
2023-02-13T06:06:57.943Z,102831.06
2023-02-13T06:08:00.131Z,102839.09
2023-02-13T06:09:02.965Z,102837.38
2023-02-13T06:10:05.835Z,102836.56
2023-02-13T06:11:09.308Z,102844.69
2023-02-13T06:12:11.685Z,102842.00
2023-02-13T06:13:14.082Z,102834.84
2023-02-13T06:14:16.682Z,102842.03
2023-02-13T06:15:18.894Z,102838.44
2023-02-13T06:16:22.561Z,102841.03
2023-02-13T06:17:24.803Z,102841.94
2023-02-13T06:18:27.044Z,102843.66
2023-02-13T06:19:29.751Z,102848.19
2023-02-13T06:20:32.418Z,102847.25
2023-02-13T06:21:37.945Z,102841.94
2023-02-13T06:22:40.177Z,102843.78
2023-02-13T06:23:42.456Z,102843.78
2023-02-13T06:24:44.961Z,102841.16
2023-02-13T06:25:47.155Z,102838.47
2023-02-13T06:26:49.960Z,102846.44
2023-02-13T06:27:52.366Z,102843.78
2023-02-13T06:28:54.762Z,102846.41
2023-02-13T06:29:57.004Z,102847.25
2023-02-13T06:30:59.892Z,102847.25
2023-02-13T06:32:02.409Z,102855.16
2023-02-13T06:33:04.736Z,102853.38
2023-02-13T06:34:07.268Z,102853.38
2023-02-13T06:35:09.898Z,102851.69
2023-02-13T06:36:12.106Z,102851.75
2023-02-13T06:37:14.339Z,102858.81
2023-02-13T06:38:19.129Z,102849.72
2023-02-13T06:39:21.383Z,102859.44
2023-02-13T06:40:23.723Z,102847.03
2023-02-13T06:41:26.228Z,102856.91
2023-02-13T06:42:28.489Z,102854.31
2023-02-13T06:43:31.079Z,102859.56
2023-02-13T06:44:33.536Z,102860.38
2023-02-13T06:45:37.644Z,102863.97
2023-02-13T06:46:40.143Z,102863.00
2023-02-13T06:47:47.700Z,102865.63
2023-02-13T06:48:50.119Z,102868.28
2023-02-13T06:49:52.502Z,102864.75
2023-02-13T06:50:55.022Z,102868.28
2023-02-13T06:51:57.584Z,102868.38
2023-02-13T06:52:59.925Z,102879.03
2023-02-13T06:54:02.671Z,102872.88
2023-02-13T06:55:05.752Z,102874.63
2023-02-13T06:56:08.025Z,102872.84
2023-02-13T06:57:10.550Z,102879.97
2023-02-13T06:58:12.743Z,102876.38
2023-02-13T06:59:15.032Z,102879.06
2023-02-13T07:00:19.040Z,102886.19
2023-02-13T07:01:21.594Z,102880.03
2023-02-13T07:02:24.146Z,102878.31
2023-02-13T07:03:26.493Z,102875.63
2023-02-13T07:04:29.102Z,102874.75
2023-02-13T07:05:32.381Z,102873.84
2023-02-13T07:06:34.732Z,102885.28
2023-02-13T07:07:38.811Z,102886.19
2023-02-13T07:08:41.246Z,102888.88
2023-02-13T07:09:43.698Z,102880.91
2023-02-13T07:10:46.170Z,102880.91
2023-02-13T07:11:48.464Z,102881.00
2023-02-13T07:13:03.660Z,102881.00
2023-02-13T07:14:08.179Z,102877.44
2023-02-13T07:15:11.570Z,102875.59
2023-02-13T07:16:14.418Z,102885.31
2023-02-13T07:17:16.693Z,102874.66
2023-02-13T07:18:18.884Z,102876.50
2023-02-13T07:19:21.307Z,102876.63
2023-02-13T07:20:24.162Z,102876.69
2023-02-13T07:21:26.867Z,102879.41
2023-02-13T07:22:31.857Z,102883.81
2023-02-13T07:23:34.390Z,102884.66
2023-02-13T07:24:38.567Z,102886.38
2023-02-13T07:25:40.771Z,102890.81
2023-02-13T07:26:43.361Z,102878.28
2023-02-13T07:27:45.873Z,102882.78
2023-02-13T07:28:48.064Z,102883.69
2023-02-13T07:29:50.458Z,102882.81
2023-02-13T07:30:56.324Z,102882.88
2023-02-13T07:31:58.952Z,102890.13
2023-02-13T07:33:02.356Z,102880.47
2023-02-13T07:34:04.539Z,102888.53
2023-02-13T07:35:07.001Z,102877.00
2023-02-13T07:36:09.583Z,102878.78
2023-02-13T07:37:11.880Z,102884.06
2023-02-13T07:38:14.501Z,102884.97
2023-02-13T07:39:16.726Z,102890.47
2023-02-13T07:40:19.279Z,102881.66
2023-02-13T07:41:21.729Z,102881.72
2023-02-13T07:42:23.941Z,102884.41
2023-02-13T07:43:26.454Z,102879.09
2023-02-13T07:44:28.640Z,102880.84
2023-02-13T07:45:31.138Z,102883.44
2023-02-13T07:46:33.475Z,102885.19
2023-02-13T07:47:35.756Z,102886.09
2023-02-13T07:48:39.893Z,102885.28
2023-02-13T07:49:42.248Z,102880.88
2023-02-13T07:50:44.472Z,102880.88
2023-02-13T07:51:46.872Z,102878.22
2023-02-13T07:53:00.491Z,102885.38
2023-02-13T07:54:03.041Z,102884.50
2023-02-13T07:55:06.164Z,102889.84
2023-02-13T07:56:09.961Z,102888.97
2023-02-13T07:57:12.414Z,102886.28
2023-02-13T07:58:14.600Z,102890.72
2023-02-13T07:59:16.795Z,102889.78
2023-02-13T08:00:19.874Z,102886.28
2023-02-13T08:01:22.126Z,102879.19
2023-02-13T08:02:24.877Z,102883.63
2023-02-13T08:03:27.088Z,102891.63
2023-02-13T08:04:29.330Z,102890.72
2023-02-13T08:05:33.067Z,102889.78
2023-02-13T08:06:35.366Z,102891.50
2023-02-13T08:07:38.139Z,102887.09
2023-02-13T08:08:40.413Z,102888.00
2023-02-13T08:10:04.232Z,102888.91
2023-02-13T08:11:31.560Z,102884.47
2023-02-13T08:12:36.182Z,102886.34
2023-02-13T08:13:38.809Z,102891.72
2023-02-13T08:14:41.074Z,102894.38
2023-02-13T08:15:47.114Z,102886.31
2023-02-13T08:16:49.983Z,102891.63
2023-02-13T08:17:52.364Z,102892.44
2023-02-13T08:18:54.591Z,102891.63
2023-02-13T08:19:57.126Z,102888.03
2023-02-13T08:21:01.451Z,102897.84
2023-02-13T08:22:04.096Z,102887.13
2023-02-13T08:23:09.724Z,102893.34
2023-02-13T08:24:12.698Z,102898.72
2023-02-13T08:25:14.905Z,102899.59
2023-02-13T08:26:17.077Z,102891.63
2023-02-13T08:27:19.952Z,102893.34
2023-02-13T08:28:22.702Z,102893.34
2023-02-13T08:29:24.953Z,102899.63
2023-02-13T08:30:28.834Z,102900.50
2023-02-13T08:31:31.197Z,102897.84
2023-02-13T08:32:44.882Z,102903.19
2023-02-13T08:33:57.549Z,102904.00
2023-02-13T08:34:59.779Z,102896.75
2023-02-13T08:36:04.776Z,102908.28
2023-02-13T08:37:07.308Z,102903.78
2023-02-13T08:38:10.163Z,102907.31
2023-02-13T08:39:12.568Z,102903.81
2023-02-13T08:40:14.974Z,102902.91
2023-02-13T08:41:22.173Z,102898.53
2023-02-13T08:42:24.391Z,102911.03
2023-02-13T08:43:28.861Z,102908.38
2023-02-13T08:44:31.501Z,102913.75
2023-02-13T08:45:34.411Z,102913.72
2023-02-13T08:46:36.876Z,102910.16
2023-02-13T08:47:39.975Z,102906.50
2023-02-13T08:48:42.564Z,102902.09
2023-02-13T08:49:44.758Z,102909.19
2023-02-13T08:50:47.048Z,102908.22
2023-02-13T08:51:50.360Z,102910.84
2023-02-13T08:52:52.692Z,102908.22
2023-02-13T08:53:55.012Z,102902.88
2023-02-13T08:55:00.316Z,102913.59
2023-02-13T08:56:03.048Z,102908.25
2023-02-13T08:57:05.481Z,102915.31
2023-02-13T08:58:07.977Z,102915.34
2023-02-13T08:59:10.247Z,102911.84
2023-02-13T09:00:13.556Z,102915.50
2023-02-13T09:01:16.486Z,102917.31
2023-02-13T09:02:18.958Z,102910.19
2023-02-13T09:03:21.245Z,102916.41
2023-02-13T09:04:23.448Z,102918.19
2023-02-13T09:05:25.906Z,102912.91
2023-02-13T09:06:28.514Z,102915.63
2023-02-13T09:07:31.136Z,102914.75
2023-02-13T09:08:35.981Z,102914.88
2023-02-13T09:09:38.489Z,102908.75
2023-02-13T09:10:43.773Z,102912.28
2023-02-13T09:11:45.982Z,102914.03
2023-02-13T09:12:54.852Z,102913.09
2023-02-13T09:13:57.285Z,102905.97
2023-02-13T09:14:59.502Z,102908.66
2023-02-13T09:16:06.894Z,102903.34
2023-02-13T09:17:09.203Z,102908.69
2023-02-13T09:18:11.750Z,102908.75
2023-02-13T09:19:13.986Z,102906.03
2023-02-13T09:20:16.330Z,102905.13
2023-02-13T09:21:21.165Z,102913.09
2023-02-13T09:22:23.449Z,102911.34
2023-02-13T09:23:25.792Z,102913.19
2023-02-13T09:24:30.113Z,102916.78
2023-02-13T09:25:32.608Z,102911.44
2023-02-13T09:26:35.094Z,102907.84
2023-02-13T09:27:39.147Z,102914.09
2023-02-13T09:28:42.205Z,102914.03
2023-02-13T09:29:45.230Z,102919.41
2023-02-13T09:30:49.190Z,102911.28
2023-02-13T09:31:51.737Z,102906.78
2023-02-13T09:32:55.590Z,102911.22
2023-02-13T09:33:58.034Z,102903.25
2023-02-13T09:35:00.537Z,102907.75
2023-02-13T09:36:07.064Z,102911.34
2023-02-13T09:37:09.310Z,102906.84
2023-02-13T09:38:12.380Z,102913.94
2023-02-13T09:39:14.655Z,102909.44
2023-02-13T09:40:29.379Z,102920.06
2023-02-13T09:41:37.080Z,102918.03
2023-02-13T09:42:39.839Z,102913.47
2023-02-13T09:43:49.382Z,102920.66
2023-02-13T09:44:55.895Z,102919.72
2023-02-13T09:46:09.969Z,102916.25
2023-02-13T09:47:24.592Z,102916.31
2023-02-13T09:48:34.564Z,102921.72
2023-02-13T09:49:40.469Z,102919.09
2023-02-13T09:50:42.787Z,102917.38
2023-02-13T09:51:48.614Z,102920.13
2023-02-13T09:52:53.471Z,102920.06
2023-02-13T09:54:00.478Z,102928.06
2023-02-13T09:55:08.193Z,102922.78
2023-02-13T09:56:17.542Z,102922.81
2023-02-13T09:57:28.802Z,102921.94
2023-02-13T09:58:51.999Z,102924.66
2023-02-13T10:00:19.804Z,102922.00
2023-02-13T10:01:41.413Z,102928.19
2023-02-13T10:02:57.523Z,102921.94
2023-02-13T10:04:08.261Z,102921.88
2023-02-13T10:05:22.211Z,102923.69
2023-02-13T10:06:32.022Z,102926.31
2023-02-13T10:07:44.263Z,102930.75
2023-02-13T10:08:59.174Z,102930.63
2023-02-13T10:10:25.398Z,102929.63
2023-02-13T10:12:09.854Z,102934.94
2023-02-13T10:13:23.597Z,102922.44
2023-02-13T10:14:45.631Z,102927.78
2023-02-13T10:15:58.105Z,102925.09
2023-02-13T10:17:31.534Z,102925.19
2023-02-13T10:18:56.752Z,102922.66
2023-02-13T10:20:24.923Z,102927.16
2023-02-13T10:21:33.782Z,102921.78
2023-02-13T10:22:43.111Z,102916.53
2023-02-13T10:23:50.768Z,102917.50
2023-02-13T10:25:03.144Z,102919.31
2023-02-13T10:26:22.193Z,102923.81
2023-02-13T10:27:25.516Z,102919.41
2023-02-13T10:28:46.518Z,102922.00
2023-02-13T10:30:09.335Z,102916.63
2023-02-13T10:31:19.280Z,102909.53
2023-02-13T10:32:29.842Z,102913.13
2023-02-13T10:33:36.368Z,102909.53
2023-02-13T10:34:43.906Z,102905.13
2023-02-13T10:36:01.338Z,102905.09
2023-02-13T10:37:12.353Z,102893.50
2023-02-13T10:38:19.126Z,102906.88
2023-02-13T10:39:27.046Z,102906.94
2023-02-13T10:40:38.286Z,102901.66
2023-02-13T10:41:46.281Z,102895.47
2023-02-13T10:43:09.730Z,102898.97
2023-02-13T10:44:30.018Z,102892.72
2023-02-13T10:46:07.127Z,102897.34
2023-02-13T10:47:40.000Z,102896.41
2023-02-13T10:48:50.926Z,102891.94
2023-02-13T10:50:05.491Z,102900.03
2023-02-13T10:51:35.999Z,102881.41
2023-02-13T10:52:50.142Z,102882.25
2023-02-13T10:53:58.097Z,102881.38
2023-02-13T10:55:47.888Z,102877.88
2023-02-13T10:57:07.291Z,102880.56
2023-02-13T10:58:38.668Z,102879.69
2023-02-13T10:59:51.976Z,102875.13
2023-02-13T11:00:59.442Z,102876.91
2023-02-13T11:02:24.616Z,102872.47
2023-02-13T11:03:28.868Z,102869.88
2023-02-13T11:04:32.342Z,102867.16
2023-02-13T11:05:39.815Z,102861.78
2023-02-13T11:06:50.911Z,102865.38
2023-02-13T11:07:53.222Z,102857.38
2023-02-13T11:08:55.686Z,102860.03
2023-02-13T11:10:13.295Z,102863.66
2023-02-13T11:11:48.295Z,102863.66
2023-02-13T11:12:51.450Z,102868.16
2023-02-13T11:14:07.884Z,102860.13
2023-02-13T11:15:21.708Z,102860.09
2023-02-13T11:16:24.166Z,102857.41
2023-02-13T11:17:30.459Z,102859.19
2023-02-13T11:18:37.221Z,102844.97
2023-02-13T11:19:51.649Z,102845.00
2023-02-13T11:21:07.890Z,102846.81
2023-02-13T11:22:16.594Z,102837.91
2023-02-13T11:23:24.529Z,102835.25
2023-02-13T11:24:28.551Z,102831.63
2023-02-13T11:25:31.290Z,102831.66
2023-02-13T11:26:36.706Z,102829.88
2023-02-13T11:27:40.523Z,102836.97
2023-02-13T11:28:50.180Z,102840.50
2023-02-13T11:29:58.412Z,102844.03
2023-02-13T11:31:12.421Z,102842.28
2023-02-13T11:32:14.984Z,102839.63
2023-02-13T11:33:17.640Z,102839.63
2023-02-13T11:34:22.819Z,102847.63
2023-02-13T11:35:30.713Z,102833.41
2023-02-13T11:36:34.309Z,102837.00
2023-02-13T11:37:36.784Z,102837.91
2023-02-13T11:38:39.026Z,102836.16
2023-02-13T11:39:43.335Z,102833.47
2023-02-13T11:40:52.761Z,102837.03
2023-02-13T11:41:55.145Z,102837.94
2023-02-13T11:42:57.621Z,102837.94
2023-02-13T11:44:04.201Z,102835.25
2023-02-13T11:45:21.842Z,102831.72
2023-02-13T11:46:26.799Z,102836.16
2023-02-13T11:47:56.097Z,102829.94
2023-02-13T11:49:03.184Z,102830.84
2023-02-13T11:50:20.453Z,102824.59
2023-02-13T11:51:45.282Z,102829.06
2023-02-13T11:52:56.729Z,102825.50
2023-02-13T11:54:01.260Z,102830.84
2023-02-13T11:55:06.670Z,102827.34
2023-02-13T11:56:15.724Z,102827.31
2023-02-13T11:57:33.733Z,102828.16
2023-02-13T11:58:36.795Z,102823.72
2023-02-13T11:59:42.388Z,102830.84
2023-02-13T12:00:44.810Z,102824.59
2023-02-13T12:01:50.328Z,102825.53
2023-02-13T12:02:53.127Z,102824.66
2023-02-13T12:04:16.494Z,102828.19
2023-02-13T12:05:25.767Z,102836.22
2023-02-13T12:06:28.236Z,102832.66
2023-02-13T12:07:32.401Z,102829.97
2023-02-13T12:08:39.559Z,102830.00
2023-02-13T12:09:44.073Z,102831.78
2023-02-13T12:10:46.549Z,102826.41
2023-02-13T12:11:51.542Z,102828.19
2023-02-13T12:13:18.593Z,102828.16
2023-02-13T12:14:25.126Z,102821.91
2023-02-13T12:15:30.940Z,102812.06
2023-02-13T12:16:43.149Z,102822.78
2023-02-13T12:17:49.419Z,102818.34
2023-02-13T12:18:56.084Z,102818.34
2023-02-13T12:19:58.603Z,102807.63
2023-02-13T12:21:01.150Z,102819.25
2023-02-13T12:22:07.096Z,102811.25
2023-02-13T12:23:44.217Z,102814.84
2023-02-13T12:24:49.102Z,102817.50
2023-02-13T12:25:57.919Z,102809.44
2023-02-13T12:27:33.251Z,102811.22
2023-02-13T12:29:12.943Z,102817.47
2023-02-13T12:30:46.329Z,102813.06
2023-02-13T12:32:19.540Z,102813.03
2023-02-13T12:34:12.814Z,102810.34
2023-02-13T12:35:31.817Z,102804.09
2023-02-13T12:36:55.217Z,102812.13
2023-02-13T12:38:04.190Z,102806.78
2023-02-13T12:39:25.560Z,102809.44
2023-02-13T12:41:07.655Z,102808.56
2023-02-13T12:42:32.333Z,102797.84
2023-02-13T12:43:53.204Z,102799.63
2023-02-13T12:45:14.293Z,102804.03
2023-02-13T12:46:40.109Z,102799.56
2023-02-13T12:47:48.174Z,102797.78
2023-02-13T12:49:14.854Z,102793.38
2023-02-13T12:50:43.789Z,102795.16
2023-02-13T12:52:12.324Z,102795.16
2023-02-13T12:53:20.790Z,102799.53
2023-02-13T12:55:01.562Z,102801.34
2023-02-13T12:56:36.156Z,102802.19
2023-02-13T12:57:41.424Z,102799.56
2023-02-13T12:58:49.854Z,102800.50
2023-02-13T13:00:29.853Z,102808.56
2023-02-13T13:01:53.769Z,102809.50